sensor_id;sensor_type;location;lat;lon;timestamp;pressure;altitude;pressure_sealevel;temperature;humidity
74621;BME280;64861;47.546;19.254;2022-11-15T00:00:03;99623.34;;;21.18;53.84
74621;BME280;64861;47.546;19.254;2022-11-15T00:02:29;99626.00;;;21.18;53.61
74621;BME280;64861;47.546;19.254;2022-11-15T00:04:54;99628.97;;;21.15;53.86
74621;BME280;64861;47.546;19.254;2022-11-15T00:07:20;99620.88;;;21.16;53.79
74621;BME280;64861;47.546;19.254;2022-11-15T00:09:45;99621.19;;;21.13;53.77
74621;BME280;64861;47.546;19.254;2022-11-15T00:12:11;99620.34;;;21.13;53.97
74621;BME280;64861;47.546;19.254;2022-11-15T00:14:36;99624.81;;;21.12;53.79
74621;BME280;64861;47.546;19.254;2022-11-15T00:17:02;99618.97;;;21.08;53.75
74621;BME280;64861;47.546;19.254;2022-11-15T00:19:27;99625.28;;;21.07;53.87
74621;BME280;64861;47.546;19.254;2022-11-15T00:21:52;99617.16;;;21.09;53.75
74621;BME280;64861;47.546;19.254;2022-11-15T00:24:18;99615.66;;;21.06;53.92
74621;BME280;64861;47.546;19.254;2022-11-15T00:26:43;99615.97;;;21.03;53.89
74621;BME280;64861;47.546;19.254;2022-11-15T00:29:09;99605.03;;;21.06;53.30
74621;BME280;64861;47.546;19.254;2022-11-15T00:31:34;99611.50;;;21.04;53.58
74621;BME280;64861;47.546;19.254;2022-11-15T00:33:59;99603.34;;;21.05;53.34
74621;BME280;64861;47.546;19.254;2022-11-15T00:36:25;99604.66;;;21.01;53.40
74621;BME280;64861;47.546;19.254;2022-11-15T00:38:50;99606.50;;;21.01;53.68
74621;BME280;64861;47.546;19.254;2022-11-15T00:41:16;99606.19;;;21.04;53.82
74621;BME280;64861;47.546;19.254;2022-11-15T00:43:41;99604.66;;;21.01;53.92
74621;BME280;64861;47.546;19.254;2022-11-15T00:46:09;99599.03;;;21.04;53.59
74621;BME280;64861;47.546;19.254;2022-11-15T00:48:35;99594.03;;;21.01;53.62
74621;BME280;64861;47.546;19.254;2022-11-15T00:51:01;99595.34;;;20.97;53.93
74621;BME280;64861;47.546;19.254;2022-11-15T00:53:27;99594.66;;;20.95;53.97
74621;BME280;64861;47.546;19.254;2022-11-15T00:55:52;99600.66;;;20.97;53.70
74621;BME280;64861;47.546;19.254;2022-11-15T00:58:19;99585.19;;;20.93;53.94
74621;BME280;64861;47.546;19.254;2022-11-15T01:00:44;99585.19;;;20.93;54.06
74621;BME280;64861;47.546;19.254;2022-11-15T01:03:09;99585.34;;;20.91;53.89
74621;BME280;64861;47.546;19.254;2022-11-15T01:05:37;99587.84;;;20.93;53.87
74621;BME280;64861;47.546;19.254;2022-11-15T01:08:03;99586.16;;;20.92;54.10
74621;BME280;64861;47.546;19.254;2022-11-15T01:10:28;99584.50;;;20.91;53.87
74621;BME280;64861;47.546;19.254;2022-11-15T01:12:54;99581.53;;;20.94;53.92
74621;BME280;64861;47.546;19.254;2022-11-15T01:15:19;99588.00;;;20.91;53.61
74621;BME280;64861;47.546;19.254;2022-11-15T01:17:45;99579.34;;;20.89;54.18
74621;BME280;64861;47.546;19.254;2022-11-15T01:20:10;99581.03;;;20.90;53.82
74621;BME280;64861;47.546;19.254;2022-11-15T01:22:36;99580.19;;;20.90;53.89
74621;BME280;64861;47.546;19.254;2022-11-15T01:25:02;99583.00;;;20.88;53.76
74621;BME280;64861;47.546;19.254;2022-11-15T01:27:28;99572.22;;;20.90;53.94
74621;BME280;64861;47.546;19.254;2022-11-15T01:29:53;99577.00;;;20.86;53.86
74621;BME280;64861;47.546;19.254;2022-11-15T01:32:18;99565.53;;;20.85;53.84
74621;BME280;64861;47.546;19.254;2022-11-15T01:34:44;99571.69;;;20.86;53.52
74621;BME280;64861;47.546;19.254;2022-11-15T01:37:09;99569.72;;;20.88;53.66
74621;BME280;64861;47.546;19.254;2022-11-15T01:39:35;99566.38;;;20.86;53.82
74621;BME280;64861;47.546;19.254;2022-11-15T01:42:00;99570.03;;;20.85;53.73
74621;BME280;64861;47.546;19.254;2022-11-15T01:44:51;99557.75;;;20.84;53.78
74621;BME280;64861;47.546;19.254;2022-11-15T01:49:57;99553.44;;;20.83;53.52
74621;BME280;64861;47.546;19.254;2022-11-15T01:52:25;99564.38;;;20.80;53.72
74621;BME280;64861;47.546;19.254;2022-11-15T01:55:21;99562.69;;;20.79;53.86
74621;BME280;64861;47.546;19.254;2022-11-15T01:57:50;99558.19;;;20.79;53.36
74621;BME280;64861;47.546;19.254;2022-11-15T02:00:18;99553.56;;;20.81;53.58
74621;BME280;64861;47.546;19.254;2022-11-15T02:02:44;99554.09;;;20.85;53.28
74621;BME280;64861;47.546;19.254;2022-11-15T02:05:09;99547.13;;;20.84;53.42
74621;BME280;64861;47.546;19.254;2022-11-15T02:07:36;99546.59;;;20.80;53.24
74621;BME280;64861;47.546;19.254;2022-11-15T02:10:08;99543.44;;;20.77;53.52
74621;BME280;64861;47.546;19.254;2022-11-15T02:12:34;99547.75;;;20.78;53.29
74621;BME280;64861;47.546;19.254;2022-11-15T02:15:01;99547.56;;;20.79;53.41
74621;BME280;64861;47.546;19.254;2022-11-15T02:17:52;99544.41;;;20.76;53.41
74621;BME280;64861;47.546;19.254;2022-11-15T02:34:05;99540.56;;;20.70;53.32
74621;BME280;64861;47.546;19.254;2022-11-15T02:36:43;99538.06;;;20.69;53.63
74621;BME280;64861;47.546;19.254;2022-11-15T02:39:42;99537.75;;;20.72;53.31
74621;BME280;64861;47.546;19.254;2022-11-15T02:42:19;99536.22;;;20.69;53.46
74621;BME280;64861;47.546;19.254;2022-11-15T02:45:07;99529.13;;;20.70;53.13
74621;BME280;64861;47.546;19.254;2022-11-15T02:47:38;99524.25;;;20.65;53.50
74621;BME280;64861;47.546;19.254;2022-11-15T02:50:09;99522.13;;;20.69;53.21
74621;BME280;64861;47.546;19.254;2022-11-15T02:52:35;99524.94;;;20.67;53.25
74621;BME280;64861;47.546;19.254;2022-11-15T02:55:01;99522.28;;;20.67;53.13
74621;BME280;64861;47.546;19.254;2022-11-15T02:57:51;99519.47;;;20.69;53.02
74621;BME280;64861;47.546;19.254;2022-11-15T03:00:18;99511.97;;;20.64;53.42
74621;BME280;64861;47.546;19.254;2022-11-15T03:11:17;99511.28;;;20.62;53.69
74621;BME280;64861;47.546;19.254;2022-11-15T03:13:59;99509.47;;;20.62;53.24
74621;BME280;64861;47.546;19.254;2022-11-15T03:16:28;99513.63;;;20.65;53.39
74621;BME280;64861;47.546;19.254;2022-11-15T03:19:00;99513.81;;;20.46;51.46
74621;BME280;64861;47.546;19.254;2022-11-15T03:21:28;99515.56;;;20.55;52.65
74621;BME280;64861;47.546;19.254;2022-11-15T03:23:56;99501.97;;;20.58;52.81
74621;BME280;64861;47.546;19.254;2022-11-15T03:26:25;99509.13;;;20.57;52.92
74621;BME280;64861;47.546;19.254;2022-11-15T03:28:58;99502.59;;;20.52;53.16
74621;BME280;64861;47.546;19.254;2022-11-15T03:31:28;99502.97;;;20.57;52.73
74621;BME280;64861;47.546;19.254;2022-11-15T03:34:22;99500.78;;;20.52;53.09
74621;BME280;64861;47.546;19.254;2022-11-15T03:36:51;99507.59;;;20.55;52.74
74621;BME280;64861;47.546;19.254;2022-11-15T03:39:18;99498.94;;;20.53;52.74
74621;BME280;64861;47.546;19.254;2022-11-15T03:41:49;99497.28;;;20.52;53.04
74621;BME280;64861;47.546;19.254;2022-11-15T03:44:34;99498.13;;;20.52;53.15
74621;BME280;64861;47.546;19.254;2022-11-15T03:49:35;99502.88;;;20.49;52.94
74621;BME280;64861;47.546;19.254;2022-11-15T03:52:02;99495.63;;;20.51;53.18
74621;BME280;64861;47.546;19.254;2022-11-15T03:54:29;99494.78;;;20.50;52.91
74621;BME280;64861;47.546;19.254;2022-11-15T03:56:54;99489.31;;;20.52;52.64
74621;BME280;64861;47.546;19.254;2022-11-15T03:59:20;99485.84;;;20.51;52.97
74621;BME280;64861;47.546;19.254;2022-11-15T04:01:45;99494.78;;;20.50;52.90
74621;BME280;64861;47.546;19.254;2022-11-15T04:04:11;99485.28;;;20.48;52.98
74621;BME280;64861;47.546;19.254;2022-11-15T04:06:36;99488.25;;;20.45;53.30
74621;BME280;64861;47.546;19.254;2022-11-15T04:09:02;99478.34;;;20.47;52.75
74621;BME280;64861;47.546;19.254;2022-11-15T04:11:27;99476.66;;;20.46;52.97
74621;BME280;64861;47.546;19.254;2022-11-15T04:13:53;99482.78;;;20.46;53.02
74621;BME280;64861;47.546;19.254;2022-11-15T04:16:18;99469.69;;;20.45;52.99
74621;BME280;64861;47.546;19.254;2022-11-15T04:18:44;99467.19;;;20.43;52.78
74621;BME280;64861;47.546;19.254;2022-11-15T04:21:09;99463.69;;;20.42;52.73
74621;BME280;64861;47.546;19.254;2022-11-15T04:23:53;99441.63;;;20.42;52.61
74621;BME280;64861;47.546;19.254;2022-11-15T04:26:37;99441.63;;;20.42;52.66
74621;BME280;64861;47.546;19.254;2022-11-15T04:29:02;99444.13;;;20.44;52.53
74621;BME280;64861;47.546;19.254;2022-11-15T04:31:47;99438.00;;;20.43;52.73
74621;BME280;64861;47.546;19.254;2022-11-15T04:34:12;99434.47;;;20.42;52.51
74621;BME280;64861;47.546;19.254;2022-11-15T04:36:37;99432.81;;;20.41;52.57
74621;BME280;64861;47.546;19.254;2022-11-15T04:39:21;99432.00;;;20.41;52.48
74621;BME280;64861;47.546;19.254;2022-11-15T04:41:47;99434.78;;;20.39;52.49
74621;BME280;64861;47.546;19.254;2022-11-15T04:44:12;99437.44;;;20.39;52.59
74621;BME280;64861;47.546;19.254;2022-11-15T04:46:38;99440.28;;;20.38;52.56
74621;BME280;64861;47.546;19.254;2022-11-15T04:49:03;99442.09;;;20.37;52.66
74621;BME280;64861;47.546;19.254;2022-11-15T04:51:29;99441.41;;;20.35;52.72
74621;BME280;64861;47.546;19.254;2022-11-15T04:53:54;99451.88;;;20.37;52.63
74621;BME280;64861;47.546;19.254;2022-11-15T04:56:19;99452.84;;;20.36;52.53
74621;BME280;64861;47.546;19.254;2022-11-15T04:58:45;99457.34;;;20.35;52.53
74621;BME280;64861;47.546;19.254;2022-11-15T05:01:14;99446.22;;;20.32;52.49
74621;BME280;64861;47.546;19.254;2022-11-15T05:03:44;99438.25;;;20.32;52.59
74621;BME280;64861;47.546;19.254;2022-11-15T05:06:28;99436.59;;;20.31;52.64
74621;BME280;64861;47.546;19.254;2022-11-15T05:08:54;99437.41;;;20.31;52.54
74621;BME280;64861;47.546;19.254;2022-11-15T05:11:20;99433.94;;;20.31;52.32
74621;BME280;64861;47.546;19.254;2022-11-15T05:13:46;99434.06;;;20.29;52.28
74621;BME280;64861;47.546;19.254;2022-11-15T05:16:12;99433.09;;;20.30;52.41
74621;BME280;64861;47.546;19.254;2022-11-15T05:18:37;99432.28;;;20.30;52.50
74621;BME280;64861;47.546;19.254;2022-11-15T05:21:10;99441.22;;;20.29;52.47
74621;BME280;64861;47.546;19.254;2022-11-15T05:23:36;99437.72;;;20.28;52.40
74621;BME280;64861;47.546;19.254;2022-11-15T05:26:05;99435.06;;;20.28;52.50
74621;BME280;64861;47.546;19.254;2022-11-15T05:28:31;99435.06;;;20.28;52.40
74621;BME280;64861;47.546;19.254;2022-11-15T05:31:07;99440.38;;;20.28;52.47
74621;BME280;64861;47.546;19.254;2022-11-15T05:33:35;99435.25;;;20.27;52.41
74621;BME280;64861;47.546;19.254;2022-11-15T05:36:04;99436.22;;;20.26;52.50
74621;BME280;64861;47.546;19.254;2022-11-15T05:38:33;99440.69;;;20.25;52.48
74621;BME280;64861;47.546;19.254;2022-11-15T05:41:00;99439.88;;;20.25;52.42
74621;BME280;64861;47.546;19.254;2022-11-15T05:43:26;99441.69;;;20.24;52.25
74621;BME280;64861;47.546;19.254;2022-11-15T05:45:52;99442.69;;;20.23;52.37
74621;BME280;64861;47.546;19.254;2022-11-15T05:48:18;99440.19;;;20.22;52.53
74621;BME280;64861;47.546;19.254;2022-11-15T05:50:46;99440.19;;;20.22;52.38
74621;BME280;64861;47.546;19.254;2022-11-15T05:53:14;99443.00;;;20.20;52.40
74621;BME280;64861;47.546;19.254;2022-11-15T05:55:41;99447.44;;;20.19;52.45
74621;BME280;64861;47.546;19.254;2022-11-15T05:58:07;99441.31;;;20.19;52.36
74621;BME280;64861;47.546;19.254;2022-11-15T06:00:32;99435.03;;;20.20;52.37
74621;BME280;64861;47.546;19.254;2022-11-15T06:02:58;99439.50;;;20.19;52.30
74621;BME280;64861;47.546;19.254;2022-11-15T06:05:23;99440.47;;;20.18;52.50
74621;BME280;64861;47.546;19.254;2022-11-15T06:07:49;99437.00;;;20.18;52.50
74621;BME280;64861;47.546;19.254;2022-11-15T06:10:15;99432.84;;;20.15;52.91
74621;BME280;64861;47.546;19.254;2022-11-15T06:12:40;99426.38;;;20.18;52.70
74621;BME280;64861;47.546;19.254;2022-11-15T06:15:06;99421.09;;;20.18;52.59
74621;BME280;64861;47.546;19.254;2022-11-15T06:17:32;99429.03;;;20.18;52.56
74621;BME280;64861;47.546;19.254;2022-11-15T06:19:57;99422.06;;;20.17;52.19
74621;BME280;64861;47.546;19.254;2022-11-15T06:22:22;99423.22;;;20.14;52.46
74621;BME280;64861;47.546;19.254;2022-11-15T06:24:48;99423.53;;;20.11;52.39
74621;BME280;64861;47.546;19.254;2022-11-15T06:27:14;99426.88;;;20.13;52.35
74621;BME280;64861;47.546;19.254;2022-11-15T06:29:39;99426.88;;;20.13;52.37
74621;BME280;64861;47.546;19.254;2022-11-15T06:32:04;99422.69;;;20.11;52.53
74621;BME280;64861;47.546;19.254;2022-11-15T06:34:30;99426.34;;;20.10;52.60
74621;BME280;64861;47.546;19.254;2022-11-15T06:36:55;99430.50;;;20.12;52.75
74621;BME280;64861;47.546;19.254;2022-11-15T06:39:21;99424.88;;;20.15;52.64
74621;BME280;64861;47.546;19.254;2022-11-15T06:41:46;99426.88;;;20.13;52.76
74621;BME280;64861;47.546;19.254;2022-11-15T06:44:12;99429.34;;;20.15;52.66
74621;BME280;64861;47.546;19.254;2022-11-15T06:46:37;99431.00;;;20.16;52.96
74621;BME280;64861;47.546;19.254;2022-11-15T06:49:03;99426.69;;;20.15;53.11
74621;BME280;64861;47.546;19.254;2022-11-15T06:51:28;99427.22;;;20.18;52.85
74621;BME280;64861;47.546;19.254;2022-11-15T06:53:54;99428.03;;;20.19;53.21
74621;BME280;64861;47.546;19.254;2022-11-15T06:56:19;99427.69;;;20.14;53.64
74621;BME280;64861;47.546;19.254;2022-11-15T06:58:44;99435.50;;;20.15;53.49
74621;BME280;64861;47.546;19.254;2022-11-15T07:01:12;99432.69;;;20.17;53.61
74621;BME280;64861;47.546;19.254;2022-11-15T07:03:39;99435.69;;;20.22;53.91
74621;BME280;64861;47.546;19.254;2022-11-15T07:06:05;99436.53;;;20.23;53.78
74621;BME280;64861;47.546;19.254;2022-11-15T07:08:31;99432.53;;;20.18;53.84
74621;BME280;64861;47.546;19.254;2022-11-15T07:11:01;99433.97;;;20.13;53.65
74621;BME280;64861;47.546;19.254;2022-11-15T07:13:28;99435.78;;;20.12;53.75
74621;BME280;64861;47.546;19.254;2022-11-15T07:15:54;99428.00;;;20.11;53.52
74621;BME280;64861;47.546;19.254;2022-11-15T07:18:20;99435.13;;;20.10;53.54
74621;BME280;64861;47.546;19.254;2022-11-15T07:20:46;99434.31;;;20.10;54.05
74621;BME280;64861;47.546;19.254;2022-11-15T07:23:11;99425.50;;;20.09;53.62
74621;BME280;64861;47.546;19.254;2022-11-15T07:25:37;99427.09;;;20.02;53.25
74621;BME280;64861;47.546;19.254;2022-11-15T07:28:03;99429.44;;;20.05;53.42
74621;BME280;64861;47.546;19.254;2022-11-15T07:30:28;99436.09;;;20.09;53.52
74621;BME280;64861;47.546;19.254;2022-11-15T07:32:59;99433.44;;;20.09;53.30
74621;BME280;64861;47.546;19.254;2022-11-15T07:35:26;99421.03;;;20.10;53.38
74621;BME280;64861;47.546;19.254;2022-11-15T07:38:02;99427.19;;;20.10;53.54
74621;BME280;64861;47.546;19.254;2022-11-15T07:40:31;99423.53;;;20.11;53.29
74621;BME280;64861;47.546;19.254;2022-11-15T07:43:02;99423.53;;;20.11;53.51
74621;BME280;64861;47.546;19.254;2022-11-15T07:45:27;99427.19;;;20.10;53.42
74621;BME280;64861;47.546;19.254;2022-11-15T07:47:54;99428.84;;;20.11;53.24
74621;BME280;64861;47.546;19.254;2022-11-15T07:50:21;99421.88;;;20.10;53.31
74621;BME280;64861;47.546;19.254;2022-11-15T07:52:47;99419.25;;;20.18;53.12
74621;BME280;64861;47.546;19.254;2022-11-15T07:55:13;99426.22;;;20.19;53.06
74621;BME280;64861;47.546;19.254;2022-11-15T07:57:38;99416.28;;;20.22;53.19
74621;BME280;64861;47.546;19.254;2022-11-15T08:00:05;99424.56;;;20.18;53.24
74621;BME280;64861;47.546;19.254;2022-11-15T08:02:31;99419.94;;;20.21;53.02
74621;BME280;64861;47.546;19.254;2022-11-15T08:04:56;99421.47;;;20.23;52.96
74621;BME280;64861;47.546;19.254;2022-11-15T08:07:22;99424.94;;;20.24;53.06
74621;BME280;64861;47.546;19.254;2022-11-15T08:09:48;99401.88;;;20.24;53.07
74621;BME280;64861;47.546;19.254;2022-11-15T08:12:14;99393.59;;;20.27;52.95
74621;BME280;64861;47.546;19.254;2022-11-15T08:14:39;99389.97;;;20.28;53.13
74621;BME280;64861;47.546;19.254;2022-11-15T08:17:05;99397.78;;;20.30;52.95
74621;BME280;64861;47.546;19.254;2022-11-15T08:19:30;99387.47;;;20.27;52.94
74621;BME280;64861;47.546;19.254;2022-11-15T08:21:55;99384.66;;;20.28;52.91
74621;BME280;64861;47.546;19.254;2022-11-15T08:24:21;99394.25;;;20.29;52.91
74621;BME280;64861;47.546;19.254;2022-11-15T08:26:46;99386.69;;;20.34;52.77
74621;BME280;64861;47.546;19.254;2022-11-15T08:29:12;99376.19;;;20.33;52.61
74621;BME280;64861;47.546;19.254;2022-11-15T08:31:37;99376.88;;;20.35;52.62
74621;BME280;64861;47.546;19.254;2022-11-15T08:34:04;99368.78;;;20.36;52.49
74621;BME280;64861;47.546;19.254;2022-11-15T08:36:30;99372.91;;;20.39;52.60
74621;BME280;64861;47.546;19.254;2022-11-15T08:38:56;99371.09;;;20.39;52.57
74621;BME280;64861;47.546;19.254;2022-11-15T08:41:36;99376.25;;;20.41;52.29
74621;BME280;64861;47.546;19.254;2022-11-15T08:44:02;99370.56;;;20.36;52.59
74621;BME280;64861;47.546;19.254;2022-11-15T08:46:27;99363.81;;;20.41;52.16
74621;BME280;64861;47.546;19.254;2022-11-15T08:48:53;99365.16;;;20.46;52.28
74621;BME280;64861;47.546;19.254;2022-11-15T08:51:18;99365.84;;;20.48;52.26
74621;BME280;64861;47.546;19.254;2022-11-15T08:53:43;99366.53;;;20.50;52.07
74621;BME280;64861;47.546;19.254;2022-11-15T08:56:11;99366.53;;;20.50;52.15
74621;BME280;64861;47.546;19.254;2022-11-15T08:58:37;99375.44;;;20.49;52.30
74621;BME280;64861;47.546;19.254;2022-11-15T09:01:03;99369.84;;;20.52;52.15
74621;BME280;64861;47.546;19.254;2022-11-15T09:03:29;99367.72;;;20.55;52.19
74621;BME280;64861;47.546;19.254;2022-11-15T09:05:59;99364.09;;;20.56;52.11
74621;BME280;64861;47.546;19.254;2022-11-15T09:08:29;99358.91;;;20.55;52.19
74621;BME280;64861;47.546;19.254;2022-11-15T09:10:54;99353.78;;;20.53;52.13
74621;BME280;64861;47.546;19.254;2022-11-15T09:13:20;99363.22;;;20.56;52.15
74621;BME280;64861;47.546;19.254;2022-11-15T09:15:45;99363.09;;;20.57;52.10
74621;BME280;64861;47.546;19.254;2022-11-15T09:18:11;99353.47;;;20.56;52.10
74621;BME280;64861;47.546;19.254;2022-11-15T09:20:36;99353.47;;;20.56;52.10
74621;BME280;64861;47.546;19.254;2022-11-15T09:23:03;99353.28;;;20.58;52.06
74621;BME280;64861;47.546;19.254;2022-11-15T09:25:29;99362.91;;;20.59;52.00
74621;BME280;64861;47.546;19.254;2022-11-15T09:27:55;99358.25;;;20.53;52.23
74621;BME280;64861;47.546;19.254;2022-11-15T09:30:21;99343.19;;;20.61;52.06
74621;BME280;64861;47.546;19.254;2022-11-15T09:32:47;99341.97;;;20.56;52.04
74621;BME280;64861;47.546;19.254;2022-11-15T09:35:13;99339.53;;;20.62;51.84
74621;BME280;64861;47.546;19.254;2022-11-15T09:37:38;99333.38;;;20.62;51.81
74621;BME280;64861;47.546;19.254;2022-11-15T09:40:04;99332.72;;;20.60;51.84
74621;BME280;64861;47.546;19.254;2022-11-15T09:42:40;99322.44;;;20.65;51.90
74621;BME280;64861;47.546;19.254;2022-11-15T09:50:15;99312.00;;;20.72;51.76
74621;BME280;64861;47.546;19.254;2022-11-15T09:52:44;99311.00;;;20.73;51.47
74621;BME280;64861;47.546;19.254;2022-11-15T09:55:11;99308.84;;;20.68;51.84
74621;BME280;64861;47.546;19.254;2022-11-15T10:01:05;99321.28;;;20.76;51.62
74621;BME280;64861;47.546;19.254;2022-11-15T10:03:38;99323.44;;;20.72;51.62
74621;BME280;64861;47.546;19.254;2022-11-15T10:06:14;99316.00;;;20.76;51.93
74621;BME280;64861;47.546;19.254;2022-11-15T10:09:02;99304.22;;;20.78;51.87
74621;BME280;64861;47.546;19.254;2022-11-15T10:11:33;99301.41;;;20.80;51.57
74621;BME280;64861;47.546;19.254;2022-11-15T10:14:19;99293.09;;;20.75;51.84
74621;BME280;64861;47.546;19.254;2022-11-15T10:20:00;99292.44;;;20.81;51.55
74621;BME280;64861;47.546;19.254;2022-11-15T10:22:35;99288.78;;;20.82;51.69
74621;BME280;64861;47.546;19.254;2022-11-15T10:25:10;99291.75;;;20.79;51.67
74621;BME280;64861;47.546;19.254;2022-11-15T10:27:39;99288.78;;;20.74;51.96
74621;BME280;64861;47.546;19.254;2022-11-15T10:30:14;99285.13;;;20.75;52.19
74621;BME280;64861;47.546;19.254;2022-11-15T10:32:42;99284.63;;;20.79;51.76
74621;BME280;64861;47.546;19.254;2022-11-15T10:35:37;99284.63;;;20.79;51.94
74621;BME280;64861;47.546;19.254;2022-11-15T10:38:10;99282.81;;;20.80;52.30
74621;BME280;64861;47.546;19.254;2022-11-15T10:40:37;99273.50;;;20.76;52.31
74621;BME280;64861;47.546;19.254;2022-11-15T10:43:23;99270.19;;;20.82;52.20
74621;BME280;64861;47.546;19.254;2022-11-15T10:45:51;99277.69;;;20.86;51.93
74621;BME280;64861;47.546;19.254;2022-11-15T10:50:44;99267.06;;;20.86;52.01
74621;BME280;64861;47.546;19.254;2022-11-15T10:53:17;99264.41;;;20.86;52.19
74621;BME280;64861;47.546;19.254;2022-11-15T10:55:50;99260.88;;;20.86;52.23
74621;BME280;64861;47.546;19.254;2022-11-15T10:58:32;99249.44;;;20.85;52.13
74621;BME280;64861;47.546;19.254;2022-11-15T11:01:28;99235.31;;;20.85;52.23
74621;BME280;64861;47.546;19.254;2022-11-15T11:04:05;99237.84;;;20.86;52.17
74621;BME280;64861;47.546;19.254;2022-11-15T11:09:36;99226.34;;;20.86;52.06
74621;BME280;64861;47.546;19.254;2022-11-15T11:12:04;99220.22;;;20.85;52.11
74621;BME280;64861;47.546;19.254;2022-11-15T11:14:32;99220.88;;;20.79;52.30
74621;BME280;64861;47.546;19.254;2022-11-15T11:17:28;99217.41;;;20.87;51.96
74621;BME280;64861;47.546;19.254;2022-11-15T11:25:30;99214.41;;;20.98;51.87
74621;BME280;64861;47.546;19.254;2022-11-15T11:30:58;99207.44;;;21.14;51.93
74621;BME280;64861;47.546;19.254;2022-11-15T11:33:34;99189.47;;;21.16;51.87
74621;BME280;64861;47.546;19.254;2022-11-15T11:36:22;99199.97;;;21.17;51.81
74621;BME280;64861;47.546;19.254;2022-11-15T11:44:28;99191.66;;;21.12;52.17
74621;BME280;64861;47.546;19.254;2022-11-15T12:05:25;99177.50;;;21.28;52.01
74621;BME280;64861;47.546;19.254;2022-11-15T12:07:54;99173.69;;;21.30;51.90
74621;BME280;64861;47.546;19.254;2022-11-15T12:10:29;99157.88;;;21.29;52.09
74621;BME280;64861;47.546;19.254;2022-11-15T12:13:04;99151.41;;;21.31;52.11
74621;BME280;64861;47.546;19.254;2022-11-15T12:15:43;99158.91;;;21.28;52.20
74621;BME280;64861;47.546;19.254;2022-11-15T12:18:15;99153.59;;;21.28;52.41
74621;BME280;64861;47.546;19.254;2022-11-15T12:20:57;99155.75;;;21.32;52.20
74621;BME280;64861;47.546;19.254;2022-11-15T12:23:29;99149.56;;;21.32;52.46
74621;BME280;64861;47.546;19.254;2022-11-15T12:26:29;99149.44;;;21.33;52.60
74621;BME280;64861;47.546;19.254;2022-11-15T12:29:03;99153.91;;;21.33;52.40
74621;BME280;64861;47.546;19.254;2022-11-15T12:31:40;99148.09;;;21.38;52.39
74621;BME280;64861;47.546;19.254;2022-11-15T12:36:49;99137.66;;;21.36;52.30
74621;BME280;64861;47.546;19.254;2022-11-15T12:39:16;99139.78;;;21.41;52.36
74621;BME280;64861;47.546;19.254;2022-11-15T12:41:44;99141.44;;;21.33;52.42
74621;BME280;64861;47.546;19.254;2022-11-15T12:44:12;99131.50;;;21.27;52.57
74621;BME280;64861;47.546;19.254;2022-11-15T12:49:10;99117.69;;;21.40;52.44
74621;BME280;64861;47.546;19.254;2022-11-15T13:02:38;99109.56;;;21.33;52.80
74621;BME280;64861;47.546;19.254;2022-11-15T13:17:54;99093.44;;;21.43;52.74
74621;BME280;64861;47.546;19.254;2022-11-15T13:20:31;99097.78;;;21.36;53.11
74621;BME280;64861;47.546;19.254;2022-11-15T13:33:22;99092.44;;;21.28;52.89
74621;BME280;64861;47.546;19.254;2022-11-15T13:35:51;99084.66;;;21.34;52.73
74621;BME280;64861;47.546;19.254;2022-11-15T13:40:45;99082.81;;;21.43;52.81
74621;BME280;64861;47.546;19.254;2022-11-15T13:46:22;99088.41;;;21.48;52.62
74621;BME280;64861;47.546;19.254;2022-11-15T13:48:59;99085.31;;;21.37;52.97
74621;BME280;64861;47.546;19.254;2022-11-15T13:51:42;99087.44;;;21.49;52.80
74621;BME280;64861;47.546;19.254;2022-11-15T13:56:37;99084.59;;;21.51;52.74
74621;BME280;64861;47.546;19.254;2022-11-15T14:01:50;99059.00;;;21.50;52.57
74621;BME280;64861;47.546;19.254;2022-11-15T14:04:20;99048.72;;;21.47;52.69
74621;BME280;64861;47.546;19.254;2022-11-15T14:06:50;99041.03;;;21.52;52.58
74621;BME280;64861;47.546;19.254;2022-11-15T14:09:29;99031.88;;;21.54;52.42
74621;BME280;64861;47.546;19.254;2022-11-15T14:11:58;99035.44;;;21.39;52.41
74621;BME280;64861;47.546;19.254;2022-11-15T14:14:25;99035.94;;;21.42;52.77
74621;BME280;64861;47.546;19.254;2022-11-15T14:16:59;99029.28;;;21.46;52.71
74621;BME280;64861;47.546;19.254;2022-11-15T14:24:39;99037.75;;;21.50;52.76
74621;BME280;64861;47.546;19.254;2022-11-15T14:27:24;99033.94;;;21.44;52.36
74621;BME280;64861;47.546;19.254;2022-11-15T14:29:50;99027.72;;;21.52;52.44
74621;BME280;64861;47.546;19.254;2022-11-15T14:32:17;99030.09;;;21.47;52.78
74621;BME280;64861;47.546;19.254;2022-11-15T14:34:44;99021.47;;;21.45;52.82
74621;BME280;64861;47.546;19.254;2022-11-15T14:37:23;99021.94;;;21.48;52.66
74621;BME280;64861;47.546;19.254;2022-11-15T14:39:49;99013.00;;;21.49;52.74
74621;BME280;64861;47.546;19.254;2022-11-15T14:42:15;99012.44;;;21.54;52.52
74621;BME280;64861;47.546;19.254;2022-11-15T14:44:42;99012.78;;;21.51;52.80
74621;BME280;64861;47.546;19.254;2022-11-15T14:47:07;99011.78;;;21.52;52.70
74621;BME280;64861;47.546;19.254;2022-11-15T14:49:33;99004.47;;;21.54;52.84
74621;BME280;64861;47.546;19.254;2022-11-15T14:51:58;99001.63;;;21.55;52.69
74621;BME280;64861;47.546;19.254;2022-11-15T14:54:24;99008.97;;;21.53;52.63
74621;BME280;64861;47.546;19.254;2022-11-15T14:56:49;99013.28;;;21.54;52.56
74621;BME280;64861;47.546;19.254;2022-11-15T14:59:14;99000.44;;;21.58;52.52
74621;BME280;64861;47.546;19.254;2022-11-15T15:01:40;98995.44;;;21.63;52.49
74621;BME280;64861;47.546;19.254;2022-11-15T15:04:05;98990.81;;;21.57;52.55
74621;BME280;64861;47.546;19.254;2022-11-15T15:06:31;98989.66;;;21.60;52.63
74621;BME280;64861;47.546;19.254;2022-11-15T15:08:56;98987.50;;;21.55;52.78
74621;BME280;64861;47.546;19.254;2022-11-15T15:11:30;98987.34;;;21.56;52.78